Terminal Aerodrome Forecast
Issued by NWS North Platte, NE

Home | Current Version | Previous Version | Text Only | Print | Product List | Glossary Off
Versions: 1 2 3 4 5 6 7 8 9 10 11 12 13 14 15 16

000
FTUS43 KLBF 160525
TAFVTN
TAF
KVTN 160525Z 1606/1706 13006KT P6SM SCT120
     FM161000 15012KT P6SM SCT250
     FM161400 18016G23KT P6SM SCT250
     FM161800 19022G28KT P6SM BKN250
     FM170000 19014KT P6SM BKN250=

USA.gov is the U.S. government's official web portal to all federal, state and local government web resources and services.